createdAt,value
2023-03-06T00:03:46.227Z,144155.84
2023-03-06T00:08:48.935Z,144169.34
2023-03-06T00:13:53.183Z,144202.53
2023-03-06T00:18:55.792Z,144191.44
2023-03-06T00:23:59.330Z,144206.22
2023-03-06T00:29:03.213Z,144228.31
2023-03-06T00:34:06.055Z,144259.06
2023-03-06T00:39:08.693Z,144278.72
2023-03-06T00:44:12.723Z,144295.91
2023-03-06T00:49:15.277Z,144313.13
2023-03-06T00:54:17.870Z,144315.59
2023-03-06T00:59:21.905Z,144309.47
2023-03-06T01:04:24.704Z,144302.03
2023-03-06T01:09:27.289Z,144276.25
2023-03-06T01:14:32.250Z,144227.09
2023-03-06T01:19:34.841Z,144162.00
2023-03-06T01:24:37.362Z,144093.22
2023-03-06T01:29:41.561Z,144033.06
2023-03-06T01:34:44.139Z,143986.38
2023-03-06T01:39:46.776Z,143982.69
2023-03-06T01:45:31.446Z,143998.66
2023-03-06T01:50:35.461Z,143987.59
2023-03-06T01:55:38.377Z,143985.16
2023-03-06T02:00:41.037Z,143974.13
2023-03-06T02:05:45.259Z,143954.44
2023-03-06T02:10:58.625Z,143964.31
2023-03-06T02:16:01.871Z,143974.13
2023-03-06T02:21:08.570Z,143985.16
2023-03-06T02:26:13.342Z,143982.69
2023-03-06T02:31:22.472Z,143960.56
2023-03-06T02:36:25.049Z,143936.03
2023-03-06T02:41:29.127Z,143931.16
2023-03-06T02:46:31.790Z,143942.19
2023-03-06T02:51:34.520Z,143955.69
2023-03-06T02:56:38.451Z,143965.53
2023-03-06T03:01:41.079Z,143969.22
2023-03-06T03:06:43.644Z,143985.16
2023-03-06T03:11:47.542Z,144009.69
2023-03-06T03:16:50.047Z,144034.28
2023-03-06T03:21:52.623Z,144050.22
2023-03-06T03:26:56.555Z,144066.19
2023-03-06T03:31:59.198Z,144071.09
2023-03-06T03:37:01.784Z,144074.75
2023-03-06T03:42:06.050Z,144084.63
2023-03-06T03:47:08.608Z,144089.53
2023-03-06T03:52:11.155Z,144096.91
2023-03-06T03:57:15.035Z,144109.16
2023-03-06T04:02:18.070Z,144117.75
2023-03-06T04:07:20.668Z,144122.66
2023-03-06T04:12:24.560Z,144136.22
2023-03-06T04:17:27.216Z,144144.81
2023-03-06T04:22:29.783Z,144153.41
2023-03-06T04:27:33.713Z,144163.22
2023-03-06T04:32:36.390Z,144171.81
2023-03-06T04:37:39.111Z,144170.59
2023-03-06T04:42:43.265Z,144177.94
2023-03-06T04:47:45.923Z,144184.09
2023-03-06T04:52:48.675Z,144182.84
2023-03-06T04:57:52.628Z,144192.69
2023-03-06T05:02:55.178Z,144202.53
2023-03-06T05:07:57.967Z,144198.88
2023-03-06T05:13:01.914Z,144214.81
2023-03-06T05:18:05.079Z,144209.91
2023-03-06T05:23:07.615Z,144203.78
2023-03-06T05:28:11.512Z,144182.84
2023-03-06T05:33:14.078Z,144189.00
2023-03-06T05:38:17.412Z,144162.00
2023-03-06T05:43:21.392Z,144149.72
2023-03-06T05:48:23.967Z,144148.50
2023-03-06T05:53:27.113Z,144150.94
2023-03-06T05:58:32.678Z,144155.84
2023-03-06T06:03:35.641Z,144155.84
2023-03-06T06:08:39.015Z,144170.59
2023-03-06T06:13:43.029Z,144174.25
2023-03-06T06:18:45.859Z,144185.31
2023-03-06T06:23:48.408Z,144200.09
2023-03-06T06:28:52.329Z,144211.13
2023-03-06T06:33:54.979Z,144222.19
2023-03-06T06:38:57.782Z,144241.81
2023-03-06T06:44:02.095Z,144254.16
2023-03-06T06:49:05.452Z,144251.69
2023-03-06T06:54:08.570Z,144272.56
2023-03-06T06:59:17.322Z,144276.25
2023-03-06T07:04:21.148Z,144292.22
2023-03-06T07:09:23.733Z,144320.50
2023-03-06T07:14:28.712Z,144362.28
2023-03-06T07:19:31.287Z,144411.44
2023-03-06T07:24:34.084Z,144448.34
2023-03-06T07:29:37.991Z,144449.59
2023-03-06T07:34:40.745Z,144476.63
2023-03-06T07:39:43.311Z,144463.09
2023-03-06T07:44:47.203Z,144465.56
2023-03-06T07:49:49.782Z,144511.06
2023-03-06T07:54:52.379Z,144534.41
2023-03-06T07:59:56.333Z,144582.41
2023-03-06T08:04:58.883Z,144689.47
2023-03-06T08:10:02.483Z,145030.56
2023-03-06T08:15:06.891Z,145031.78
2023-03-06T08:20:11.312Z,144874.09
2023-03-06T08:25:14.372Z,144751.00
2023-03-06T08:30:21.483Z,144699.28
2023-03-06T08:35:24.145Z,144706.66
2023-03-06T08:40:30.402Z,144700.53
2023-03-06T08:45:34.298Z,144775.63
2023-03-06T08:50:36.944Z,144982.50
2023-03-06T08:55:40.184Z,145488.06
2023-03-06T09:00:44.260Z,145779.41
2023-03-06T09:05:47.196Z,146020.41
2023-03-06T09:10:50.037Z,145665.81
2023-03-06T09:15:54.128Z,145767.06
2023-03-06T09:20:56.917Z,145742.41
2023-03-06T09:26:00.910Z,145601.59
2023-03-06T09:31:08.726Z,145816.50
2023-03-06T09:36:15.604Z,146489.34
2023-03-06T09:41:26.541Z,146813.81
2023-03-06T09:46:39.581Z,146865.91
2023-03-06T09:51:52.678Z,146338.28
2023-03-06T09:56:55.281Z,146432.34
2023-03-06T10:02:10.605Z,146455.91
2023-03-06T10:07:19.271Z,146330.84
2023-03-06T10:12:24.991Z,145995.72
2023-03-06T10:17:35.720Z,145705.34
2023-03-06T10:22:48.016Z,145668.28
2023-03-06T10:28:02.307Z,146069.88
2023-03-06T10:33:12.939Z,146333.34
2023-03-06T10:38:21.667Z,146509.13
2023-03-06T10:43:24.553Z,146318.50
2023-03-06T10:48:30.634Z,146283.84
2023-03-06T10:53:33.322Z,146202.22
2023-03-06T10:58:35.873Z,145947.44
2023-03-06T11:03:39.807Z,145821.44
2023-03-06T11:08:44.319Z,145821.44
2023-03-06T11:13:58.082Z,146146.56
2023-03-06T11:19:05.706Z,146165.09
2023-03-06T11:24:16.449Z,145942.50
2023-03-06T11:29:29.607Z,145701.63
2023-03-06T11:34:41.191Z,145707.81
2023-03-06T11:39:47.932Z,145769.53
2023-03-06T11:45:03.327Z,146236.81
2023-03-06T11:50:18.834Z,146577.22
2023-03-06T11:55:34.593Z,146214.56
2023-03-06T12:00:49.679Z,145911.59
2023-03-06T12:06:03.861Z,145747.34
2023-03-06T12:16:35.726Z,146011.75
2023-03-06T12:21:51.711Z,146188.56
2023-03-06T12:27:06.105Z,145910.38
2023-03-06T12:32:21.151Z,145757.22
2023-03-06T12:37:36.358Z,145747.34
2023-03-06T12:43:03.157Z,145774.47
2023-03-06T12:48:12.127Z,145958.56
2023-03-06T12:53:22.176Z,146119.31
2023-03-06T12:58:52.760Z,146137.88
2023-03-06T13:04:13.412Z,146280.13
2023-03-06T13:09:20.871Z,146231.88
2023-03-06T13:14:26.273Z,146489.34
2023-03-06T13:19:29.021Z,146520.25
2023-03-06T13:24:35.066Z,146252.88
2023-03-06T13:30:07.067Z,146459.59
2023-03-06T13:35:52.461Z,146292.47
2023-03-06T13:41:16.293Z,146239.28
2023-03-06T13:46:24.997Z,146262.81
2023-03-06T13:51:34.385Z,146187.34
2023-03-06T13:57:04.761Z,146165.09
2023-03-06T14:02:28.940Z,146266.53
2023-03-06T14:07:32.596Z,146470.72
2023-03-06T14:12:39.128Z,146302.38
2023-03-06T14:17:54.145Z,146241.75
2023-03-06T14:23:15.090Z,146105.75
2023-03-06T14:28:26.660Z,145943.75
2023-03-06T14:33:33.157Z,146001.88
2023-03-06T14:38:43.388Z,145875.78
2023-03-06T14:43:47.320Z,145917.81
2023-03-06T14:48:50.735Z,145874.56
2023-03-06T14:53:54.786Z,145890.59
2023-03-06T14:59:01.788Z,145799.22
2023-03-06T15:04:13.627Z,145730.00
2023-03-06T15:09:20.544Z,145668.28
2023-03-06T15:14:32.952Z,145675.66
2023-03-06T15:19:40.298Z,145707.81
2023-03-06T15:24:43.027Z,145758.44
2023-03-06T15:29:47.304Z,145823.91
2023-03-06T15:35:29.906Z,145757.22
2023-03-06T15:40:33.262Z,145686.81
2023-03-06T15:45:37.208Z,145606.53
2023-03-06T15:50:39.888Z,145517.69
2023-03-06T15:55:42.753Z,145451.03
2023-03-06T16:00:46.882Z,145425.13
2023-03-06T16:05:49.624Z,145388.06
2023-03-06T16:10:52.451Z,145354.78
2023-03-06T16:15:57.023Z,145307.91
2023-03-06T16:21:00.649Z,145185.84
2023-03-06T16:26:03.252Z,144966.50
2023-03-06T16:31:07.345Z,144886.47
2023-03-06T16:36:14.007Z,144851.97
2023-03-06T16:41:17.261Z,144851.97
2023-03-06T16:46:24.349Z,144858.13
2023-03-06T16:51:26.915Z,144845.81
2023-03-06T16:56:29.484Z,144859.34
2023-03-06T17:01:33.527Z,144856.88
2023-03-06T17:06:36.339Z,144863.03
2023-03-06T17:11:39.500Z,144855.66
2023-03-06T17:16:43.494Z,144866.72
2023-03-06T17:21:46.108Z,144859.34
2023-03-06T17:26:48.919Z,144847.03
2023-03-06T17:31:52.884Z,144824.88
2023-03-06T17:36:56.179Z,144801.47
2023-03-06T17:41:58.794Z,144790.41
2023-03-06T17:47:03.439Z,144781.78
2023-03-06T17:52:06.523Z,144770.72
2023-03-06T17:57:09.055Z,144769.50
2023-03-06T18:02:13.336Z,144764.53
2023-03-06T18:07:15.919Z,144754.69
2023-03-06T18:12:18.487Z,144751.00
2023-03-06T18:17:22.608Z,144742.38
2023-03-06T18:22:25.271Z,144738.69
2023-03-06T18:27:27.844Z,144738.69
2023-03-06T18:32:31.987Z,144716.56
2023-03-06T18:37:34.580Z,144704.22
2023-03-06T18:42:37.144Z,144679.63
2023-03-06T18:47:41.661Z,144667.31
2023-03-06T18:52:44.493Z,144655.03
2023-03-06T18:57:47.108Z,144635.31
2023-03-06T19:02:50.994Z,144637.78
2023-03-06T19:07:53.551Z,144630.38
2023-03-06T19:12:56.084Z,144630.38
2023-03-06T19:18:00.406Z,144636.53
2023-03-06T19:23:02.915Z,144636.53
2023-03-06T19:28:05.555Z,144642.69
2023-03-06T19:33:09.468Z,144655.03
2023-03-06T19:38:12.097Z,144662.41
2023-03-06T19:43:14.662Z,144655.03
2023-03-06T19:48:18.559Z,144650.06
2023-03-06T19:53:21.680Z,144646.38
2023-03-06T19:58:24.232Z,144645.16
2023-03-06T20:03:28.080Z,144637.78
2023-03-06T20:08:30.676Z,144625.47
2023-03-06T20:13:34.289Z,144615.63
2023-03-06T20:18:38.078Z,144611.94
2023-03-06T20:23:40.900Z,144610.72
2023-03-06T20:28:43.924Z,144600.88
2023-03-06T20:33:49.953Z,144600.88
2023-03-06T20:38:52.587Z,144603.34
2023-03-06T20:43:55.490Z,144595.97
2023-03-06T20:48:59.604Z,144586.09
2023-03-06T20:54:03.146Z,144578.72
2023-03-06T20:59:06.742Z,144573.78
2023-03-06T21:04:11.046Z,144563.97
2023-03-06T21:09:14.747Z,144556.59
2023-03-06T21:14:17.161Z,144548.00
2023-03-06T21:19:21.049Z,144540.63
2023-03-06T21:24:23.605Z,144527.03
2023-03-06T21:29:26.172Z,144513.53
2023-03-06T21:34:30.152Z,144509.84
2023-03-06T21:39:32.733Z,144502.47
2023-03-06T21:44:35.317Z,144507.38
2023-03-06T21:49:39.454Z,144504.94
2023-03-06T21:54:42.069Z,144502.47
2023-03-06T21:59:44.616Z,144508.63
2023-03-06T22:04:52.535Z,144497.56
2023-03-06T22:09:55.788Z,144509.84
2023-03-06T22:14:58.380Z,144511.06
2023-03-06T22:20:02.344Z,144512.28
2023-03-06T22:25:05.875Z,144522.13
2023-03-06T22:30:09.929Z,144534.41
2023-03-06T22:35:13.836Z,144546.75
2023-03-06T22:40:16.736Z,144560.28
2023-03-06T22:45:19.300Z,144578.72
2023-03-06T22:50:23.222Z,144603.34
2023-03-06T22:55:26.514Z,144620.56
2023-03-06T23:00:29.196Z,144642.69
2023-03-06T23:05:33.111Z,144651.34
2023-03-06T23:10:38.077Z,144664.88
2023-03-06T23:15:40.755Z,144687.00
2023-03-06T23:20:45.321Z,144702.97
2023-03-06T23:25:47.947Z,144712.88
2023-03-06T23:30:51.012Z,144731.31
2023-03-06T23:35:55.126Z,144743.63
2023-03-06T23:40:57.772Z,144754.69
2023-03-06T23:46:00.995Z,144762.06
2023-03-06T23:51:08.231Z,144778.09
2023-03-06T23:56:11.524Z,144778.09
